createdAt,value
2023-11-07T00:01:29.192Z,100.00
2023-11-07T00:04:31.719Z,100.00
2023-11-07T00:07:36.290Z,100.00
2023-11-07T00:10:39.987Z,100.00
2023-11-07T00:13:45.108Z,100.00
2023-11-07T00:16:48.683Z,100.00
2023-11-07T00:19:53.652Z,100.00
2023-11-07T00:23:00.055Z,100.00
2023-11-07T00:26:03.345Z,100.00
2023-11-07T00:29:05.795Z,100.00
2023-11-07T00:32:07.862Z,100.00
2023-11-07T00:35:12.250Z,100.00
2023-11-07T00:38:14.422Z,100.00
2023-11-07T00:41:17.070Z,100.00
2023-11-07T00:44:19.632Z,100.00
2023-11-07T00:47:24.609Z,100.00
2023-11-07T00:50:26.637Z,100.00
2023-11-07T00:53:28.763Z,100.00
2023-11-07T00:56:31.057Z,100.00
2023-11-07T00:59:33.076Z,100.00
2023-11-07T01:02:35.720Z,100.00
2023-11-07T01:05:38.052Z,100.00
2023-11-07T01:08:40.196Z,100.00
2023-11-07T01:11:42.534Z,100.00
2023-11-07T01:14:45.916Z,100.00
2023-11-07T01:17:48.090Z,100.00
2023-11-07T01:20:50.281Z,100.00
2023-11-07T01:23:52.418Z,100.00
2023-11-07T01:26:54.451Z,100.00
2023-11-07T01:29:56.479Z,100.00
2023-11-07T01:33:00.075Z,100.00
2023-11-07T01:36:02.282Z,100.00
2023-11-07T01:39:04.519Z,100.00
2023-11-07T01:42:08.717Z,100.00
2023-11-07T01:49:11.262Z,100.00
2023-11-07T01:52:16.146Z,100.00
2023-11-07T01:55:18.676Z,100.00
2023-11-07T01:58:22.060Z,100.00
2023-11-07T02:01:27.389Z,100.00
2023-11-07T02:04:31.818Z,100.00
2023-11-07T02:10:53.748Z,100.00
2023-11-07T02:13:56.306Z,100.00
2023-11-07T02:17:01.326Z,100.00
2023-11-07T02:20:05.804Z,100.00
2023-11-07T02:23:28.979Z,100.00
2023-11-07T02:26:35.582Z,100.00
2023-11-07T02:29:39.677Z,100.00
2023-11-07T02:32:45.781Z,100.00
2023-11-07T02:35:49.178Z,100.00
2023-11-07T02:38:52.020Z,100.00
2023-11-07T02:41:54.685Z,100.00
2023-11-07T02:44:58.920Z,100.00
2023-11-07T02:48:02.107Z,100.00
2023-11-07T02:51:05.731Z,100.00
2023-11-07T02:54:09.843Z,100.00
2023-11-07T02:57:15.783Z,100.00
2023-11-07T03:00:18.967Z,100.00
2023-11-07T03:03:22.072Z,100.00
2023-11-07T03:06:27.217Z,100.00
2023-11-07T03:09:30.317Z,100.00
2023-11-07T03:12:33.301Z,100.00
2023-11-07T03:15:36.667Z,100.00
2023-11-07T03:18:39.840Z,100.00
2023-11-07T03:21:44.077Z,100.00
2023-11-07T03:24:47.644Z,100.00
2023-11-07T03:27:52.228Z,100.00
2023-11-07T03:30:59.142Z,100.00
2023-11-07T03:34:02.652Z,100.00
2023-11-07T03:37:06.386Z,100.00
2023-11-07T03:40:10.101Z,100.00
2023-11-07T03:43:14.486Z,100.00
2023-11-07T03:46:17.351Z,100.00
2023-11-07T03:49:20.240Z,100.00
2023-11-07T03:52:22.814Z,100.00
2023-11-07T03:55:25.898Z,100.00
2023-11-07T03:58:34.592Z,100.00
2023-11-07T04:01:39.811Z,100.00
2023-11-07T04:04:42.777Z,100.00
2023-11-07T04:07:46.038Z,100.00
2023-11-07T04:10:49.135Z,100.00
2023-11-07T04:13:56.606Z,100.00
2023-11-07T04:17:04.932Z,100.00
2023-11-07T04:20:14.614Z,100.00
2023-11-07T04:23:18.193Z,100.00
2023-11-07T04:26:22.819Z,100.00
2023-11-07T04:29:25.721Z,100.00
2023-11-07T04:32:28.507Z,100.00
2023-11-07T04:35:34.214Z,100.00
2023-11-07T04:38:37.943Z,100.00
2023-11-07T04:41:40.995Z,100.00
2023-11-07T04:44:44.354Z,100.00
2023-11-07T04:47:50.926Z,100.00
2023-11-07T04:50:53.809Z,100.00
2023-11-07T04:53:57.832Z,100.00
2023-11-07T04:57:02.425Z,100.00
2023-11-07T05:00:06.345Z,100.00
2023-11-07T05:03:11.024Z,100.00
2023-11-07T05:06:13.959Z,100.00
2023-11-07T05:09:17.092Z,100.00
2023-11-07T05:12:20.182Z,100.00
2023-11-07T05:15:23.435Z,100.00
2023-11-07T05:18:26.267Z,100.00
2023-11-07T05:21:30.485Z,100.00
2023-11-07T05:24:36.512Z,100.00
2023-11-07T05:27:43.089Z,100.00
2023-11-07T05:30:46.169Z,100.00
2023-11-07T05:33:51.891Z,100.00
2023-11-07T05:36:57.740Z,100.00
2023-11-07T05:40:05.927Z,100.00
2023-11-07T05:43:10.945Z,100.00
2023-11-07T05:46:14.858Z,100.00
2023-11-07T05:49:21.781Z,100.00
2023-11-07T05:52:26.208Z,100.00
2023-11-07T05:55:30.304Z,100.00
2023-11-07T05:58:34.822Z,100.00
2023-11-07T06:01:38.807Z,100.00
2023-11-07T06:04:46.208Z,100.00
2023-11-07T06:07:53.655Z,100.00
2023-11-07T06:10:57.036Z,100.00
2023-11-07T06:14:00.513Z,100.00
2023-11-07T06:17:05.123Z,100.00
2023-11-07T06:20:13.615Z,100.00
2023-11-07T06:23:21.820Z,100.00
2023-11-07T06:26:25.048Z,100.00
2023-11-07T06:29:29.588Z,100.00
2023-11-07T06:32:36.829Z,100.00
2023-11-07T06:35:46.366Z,100.00
2023-11-07T06:42:45.858Z,100.00
2023-11-07T06:45:54.254Z,100.00
2023-11-07T06:49:08.337Z,100.00
2023-11-07T06:52:13.841Z,100.00
2023-11-07T06:55:41.979Z,100.00
2023-11-07T07:02:47.753Z,100.00
2023-11-07T07:07:03.543Z,100.00
2023-11-07T07:24:57.836Z,100.00
2023-11-07T07:28:47.709Z,100.00
2023-11-07T07:32:23.142Z,100.00
2023-11-07T07:39:17.381Z,100.00
2023-11-07T07:43:01.040Z,100.00
2023-11-07T07:46:16.173Z,100.00
2023-11-07T07:49:38.101Z,100.00
2023-11-07T07:56:45.540Z,100.00
2023-11-07T08:13:34.805Z,100.00
2023-11-07T08:17:32.041Z,100.00
2023-11-07T08:25:54.608Z,100.00
2023-11-07T08:30:12.847Z,100.00
2023-11-07T08:33:52.676Z,100.00
2023-11-07T08:37:42.145Z,100.00
2023-11-07T08:42:09.763Z,100.00
2023-11-07T08:46:08.392Z,100.00
2023-11-07T09:20:30.428Z,100.00
2023-11-07T09:23:42.091Z,100.00
2023-11-07T09:26:53.929Z,100.00
2023-11-07T09:30:14.562Z,100.00
2023-11-07T09:33:24.065Z,100.00
2023-11-07T09:36:31.805Z,100.00
2023-11-07T09:39:41.754Z,100.00
2023-11-07T09:43:00.921Z,100.00
2023-11-07T09:46:07.485Z,100.00
2023-11-07T09:49:15.113Z,100.00
2023-11-07T09:52:23.739Z,100.00
2023-11-07T09:56:01.882Z,100.00
2023-11-07T09:59:43.091Z,100.00
2023-11-07T10:11:35.304Z,100.00
2023-11-07T10:14:40.996Z,100.00
2023-11-07T10:18:14.746Z,100.00
2023-11-07T10:21:33.715Z,100.00
2023-11-07T10:24:46.835Z,100.00
2023-11-07T10:28:05.246Z,100.00
2023-11-07T10:31:29.695Z,100.00
2023-11-07T10:34:33.756Z,100.00
2023-11-07T10:37:38.827Z,100.00
2023-11-07T10:40:52.222Z,100.00
2023-11-07T10:44:26.624Z,100.00
2023-11-07T10:52:30.862Z,100.00
2023-11-07T10:55:34.039Z,100.00
2023-11-07T10:59:18.921Z,100.00
2023-11-07T11:11:21.685Z,97.46
2023-11-07T11:14:54.799Z,97.20
2023-11-07T11:18:19.438Z,97.25
2023-11-07T11:22:05.979Z,95.41
2023-11-07T11:25:39.409Z,96.07
2023-11-07T11:28:50.778Z,96.97
2023-11-07T11:31:55.302Z,96.94
2023-11-07T11:35:31.583Z,96.45
2023-11-07T11:38:44.309Z,95.37
2023-11-07T11:42:05.160Z,95.78
2023-11-07T11:45:40.245Z,96.29
2023-11-07T11:49:38.320Z,95.72
2023-11-07T11:52:54.111Z,96.02
2023-11-07T11:56:12.319Z,95.80
2023-11-07T12:00:01.872Z,95.23
2023-11-07T12:03:16.614Z,95.59
2023-11-07T12:06:27.375Z,95.38
2023-11-07T12:10:03.421Z,95.05
2023-11-07T12:13:36.499Z,94.24
2023-11-07T12:18:25.926Z,94.34
2023-11-07T12:21:46.987Z,94.63
2023-11-07T12:25:20.603Z,95.40
2023-11-07T12:28:28.193Z,94.21
2023-11-07T12:31:39.839Z,94.92
2023-11-07T12:34:47.716Z,94.33
2023-11-07T12:37:52.062Z,94.91
2023-11-07T12:40:57.911Z,95.24
2023-11-07T12:44:24.595Z,93.67
2023-11-07T12:47:31.058Z,93.57
2023-11-07T12:50:38.194Z,93.64
2023-11-07T12:53:48.649Z,94.14
2023-11-07T12:56:58.236Z,93.49
2023-11-07T13:00:02.811Z,93.04
2023-11-07T13:03:10.507Z,93.59
2023-11-07T13:06:20.841Z,93.70
2023-11-07T13:09:33.046Z,93.65
2023-11-07T13:12:40.165Z,93.00
2023-11-07T13:15:46.306Z,93.22
2023-11-07T13:19:07.286Z,93.63
2023-11-07T13:22:13.370Z,93.82
2023-11-07T13:25:17.286Z,94.01
2023-11-07T13:28:22.240Z,94.68
2023-11-07T13:31:25.309Z,95.03
2023-11-07T13:34:29.509Z,94.88
2023-11-07T13:37:32.839Z,94.50
2023-11-07T13:40:40.519Z,94.88
2023-11-07T13:43:45.964Z,94.90
2023-11-07T13:46:49.376Z,94.76
2023-11-07T13:49:58.497Z,95.52
2023-11-07T13:53:02.429Z,95.25
2023-11-07T13:56:15.968Z,94.50
2023-11-07T13:59:25.227Z,94.41
2023-11-07T14:02:32.928Z,94.96
2023-11-07T14:05:36.538Z,94.41
2023-11-07T14:08:42.916Z,94.47
2023-11-07T14:11:53.560Z,95.28
2023-11-07T14:14:56.043Z,95.57
2023-11-07T14:18:03.029Z,95.41
2023-11-07T14:21:10.990Z,94.44
2023-11-07T14:24:13.842Z,94.05
2023-11-07T14:27:16.224Z,94.67
2023-11-07T14:30:27.811Z,94.43
2023-11-07T14:33:40.033Z,94.53
2023-11-07T14:36:42.879Z,94.47
2023-11-07T14:39:50.171Z,94.59
2023-11-07T14:42:54.647Z,94.01
2023-11-07T14:46:00.985Z,95.61
2023-11-07T14:49:06.529Z,95.50
2023-11-07T14:52:11.158Z,95.70
2023-11-07T14:55:17.744Z,95.56
2023-11-07T14:58:26.091Z,95.36
2023-11-07T15:01:29.012Z,95.31
2023-11-07T15:04:32.625Z,95.96
2023-11-07T15:07:35.622Z,96.19
2023-11-07T15:10:38.390Z,95.81
2023-11-07T15:13:43.313Z,96.48
2023-11-07T15:16:47.486Z,96.45
2023-11-07T15:19:51.703Z,96.24
2023-11-07T15:22:54.522Z,96.73
2023-11-07T15:25:58.012Z,96.29
2023-11-07T15:29:03.086Z,96.67
2023-11-07T15:32:06.573Z,96.33
2023-11-07T15:35:11.959Z,96.78
2023-11-07T15:38:20.965Z,96.31
2023-11-07T15:41:26.386Z,96.44
2023-11-07T15:44:32.790Z,95.73
2023-11-07T15:47:37.651Z,95.58
2023-11-07T15:50:41.154Z,95.79
2023-11-07T15:53:44.352Z,96.06
2023-11-07T15:56:49.230Z,95.74
2023-11-07T15:59:51.993Z,96.08
2023-11-07T16:02:54.604Z,96.31
2023-11-07T16:05:57.403Z,96.94
2023-11-07T16:09:01.056Z,98.07
2023-11-07T16:12:08.008Z,97.69
2023-11-07T16:15:12.215Z,98.90
2023-11-07T16:18:15.301Z,100.00
2023-11-07T16:21:17.883Z,100.00
2023-11-07T16:24:20.436Z,100.00
2023-11-07T16:27:24.727Z,100.00
2023-11-07T16:30:27.763Z,100.00
2023-11-07T16:33:31.999Z,100.00
2023-11-07T16:36:34.680Z,100.00
2023-11-07T16:39:39.274Z,100.00
2023-11-07T16:42:44.881Z,100.00
2023-11-07T16:45:48.924Z,100.00
2023-11-07T16:48:54.896Z,100.00
2023-11-07T16:51:57.669Z,100.00
2023-11-07T16:55:02.391Z,100.00
2023-11-07T16:58:07.414Z,100.00
2023-11-07T17:01:10.704Z,100.00
2023-11-07T17:04:16.196Z,100.00
2023-11-07T17:07:20.041Z,100.00
2023-11-07T17:10:24.729Z,100.00
2023-11-07T17:13:28.325Z,100.00
2023-11-07T17:16:31.500Z,100.00
2023-11-07T17:19:34.373Z,100.00
2023-11-07T17:22:40.607Z,100.00
2023-11-07T17:25:43.691Z,100.00
2023-11-07T17:28:47.267Z,100.00
2023-11-07T17:31:50.874Z,100.00
2023-11-07T17:34:58.855Z,100.00
2023-11-07T17:38:01.094Z,100.00
2023-11-07T17:41:03.478Z,100.00
2023-11-07T17:44:08.996Z,100.00
2023-11-07T17:47:12.382Z,100.00
2023-11-07T17:50:18.052Z,100.00
2023-11-07T17:53:21.181Z,100.00
2023-11-07T17:56:24.463Z,100.00
2023-11-07T17:59:27.847Z,100.00
2023-11-07T18:02:31.481Z,100.00
2023-11-07T18:05:33.966Z,100.00
2023-11-07T18:08:40.454Z,100.00
2023-11-07T18:11:46.639Z,100.00
2023-11-07T18:14:49.468Z,100.00
2023-11-07T18:17:52.208Z,100.00
2023-11-07T18:20:55.686Z,100.00
2023-11-07T18:23:59.569Z,100.00
2023-11-07T18:27:02.089Z,100.00
2023-11-07T18:30:05.578Z,100.00
2023-11-07T18:33:09.919Z,100.00
2023-11-07T18:36:13.263Z,100.00
2023-11-07T18:39:15.923Z,100.00
2023-11-07T18:42:19.601Z,100.00
2023-11-07T18:45:22.382Z,100.00
2023-11-07T18:48:27.229Z,100.00
2023-11-07T18:51:30.119Z,100.00
2023-11-07T18:54:35.662Z,100.00
2023-11-07T18:57:47.767Z,100.00
2023-11-07T19:00:50.115Z,100.00
2023-11-07T19:03:52.782Z,100.00
2023-11-07T19:06:57.004Z,100.00
2023-11-07T19:10:01.621Z,100.00
2023-11-07T19:13:05.198Z,100.00
2023-11-07T19:16:08.479Z,100.00
2023-11-07T19:19:13.443Z,100.00
2023-11-07T19:22:16.781Z,100.00
2023-11-07T19:25:19.648Z,100.00
2023-11-07T19:28:25.994Z,100.00
2023-11-07T19:31:36.130Z,100.00
2023-11-07T19:34:39.526Z,100.00
2023-11-07T19:37:45.551Z,100.00
2023-11-07T19:40:48.831Z,100.00
2023-11-07T19:43:54.152Z,100.00
2023-11-07T19:46:57.335Z,100.00
2023-11-07T19:50:03.382Z,100.00
2023-11-07T19:53:11.745Z,100.00
2023-11-07T19:56:14.952Z,100.00
2023-11-07T19:59:18.955Z,100.00
2023-11-07T20:02:23.987Z,100.00
2023-11-07T20:05:28.410Z,100.00
2023-11-07T20:08:31.862Z,100.00
2023-11-07T20:11:39.034Z,100.00
2023-11-07T20:14:45.624Z,100.00
2023-11-07T20:17:48.640Z,100.00
2023-11-07T20:20:52.044Z,100.00
2023-11-07T20:23:54.982Z,100.00
2023-11-07T20:26:58.191Z,100.00
2023-11-07T20:30:07.170Z,100.00
2023-11-07T20:33:10.737Z,100.00
2023-11-07T20:36:19.807Z,100.00
2023-11-07T20:39:25.368Z,100.00
2023-11-07T20:42:29.281Z,100.00
2023-11-07T20:45:41.033Z,100.00
2023-11-07T20:48:46.705Z,100.00
2023-11-07T20:51:52.198Z,100.00
2023-11-07T20:54:55.456Z,100.00
2023-11-07T20:58:04.362Z,100.00
2023-11-07T21:01:09.602Z,100.00
2023-11-07T21:04:12.516Z,100.00
2023-11-07T21:07:15.134Z,100.00
2023-11-07T21:10:18.276Z,100.00
2023-11-07T21:13:20.727Z,100.00
2023-11-07T21:16:23.844Z,100.00
2023-11-07T21:19:27.536Z,100.00
2023-11-07T21:22:30.097Z,100.00
2023-11-07T21:25:32.755Z,100.00
2023-11-07T21:28:36.729Z,100.00
2023-11-07T21:31:40.142Z,100.00
2023-11-07T21:34:44.914Z,100.00
2023-11-07T21:37:48.756Z,100.00
2023-11-07T21:40:51.184Z,100.00
2023-11-07T21:43:54.036Z,100.00
2023-11-07T21:46:56.852Z,100.00
2023-11-07T21:49:58.967Z,100.00
2023-11-07T21:53:01.569Z,100.00
2023-11-07T21:56:04.336Z,100.00
2023-11-07T21:59:08.605Z,100.00
2023-11-07T22:02:11.768Z,100.00
2023-11-07T22:05:19.257Z,100.00
2023-11-07T22:08:21.995Z,100.00
2023-11-07T22:11:26.705Z,100.00
2023-11-07T22:14:29.087Z,100.00
2023-11-07T22:17:31.985Z,100.00
2023-11-07T22:20:35.350Z,100.00
2023-11-07T22:23:37.632Z,100.00
2023-11-07T22:26:40.245Z,100.00
2023-11-07T22:29:43.441Z,100.00
2023-11-07T22:32:47.461Z,100.00
2023-11-07T22:35:53.303Z,100.00
2023-11-07T22:38:55.748Z,100.00
2023-11-07T22:41:58.179Z,100.00
2023-11-07T22:45:05.610Z,100.00
2023-11-07T22:48:10.677Z,100.00
2023-11-07T22:51:14.618Z,100.00
2023-11-07T22:54:18.341Z,100.00
2023-11-07T22:57:21.973Z,100.00
2023-11-07T23:00:40.362Z,100.00
2023-11-07T23:03:47.359Z,100.00
2023-11-07T23:06:50.263Z,100.00
2023-11-07T23:09:54.985Z,100.00
2023-11-07T23:12:58.421Z,100.00
2023-11-07T23:16:01.549Z,100.00
2023-11-07T23:19:03.961Z,100.00
2023-11-07T23:22:06.421Z,100.00
2023-11-07T23:25:10.594Z,100.00
2023-11-07T23:28:13.010Z,100.00
2023-11-07T23:31:16.465Z,100.00
2023-11-07T23:34:20.053Z,100.00
2023-11-07T23:37:23.658Z,100.00
2023-11-07T23:40:26.524Z,100.00
2023-11-07T23:43:29.396Z,100.00
2023-11-07T23:46:32.266Z,100.00
2023-11-07T23:49:35.032Z,100.00
2023-11-07T23:52:38.011Z,100.00
2023-11-07T23:55:40.460Z,100.00
2023-11-07T23:58:44.456Z,100.00
